Time;durP1;ratioP1;P1;durP2;ratioP2;P2;SDS_P1;SDS_P2;PMS_P1;PMS_P2;Temp;Humidity;BMP_temperature;BMP_pressure;BME280_temperature;BME280_humidity;BME280_pressure;Samples;Min_cycle;Max_cycle;Signal;HPM_P1;HPM_P2
2023/03/04 00:02:02;;;;;;;20.07;4.80;;;;;;;4.96;74.59;102462.88;5268545;28;20060;-71
2023/03/04 00:04:33;;;;;;;26.67;4.33;;;;;;;4.90;74.81;102472.19;5272218;28;20043;-71
2023/03/04 00:07:05;;;;;;;17.53;5.00;;;;;;;4.89;75.12;102461.78;5273049;28;20049;-71
2023/03/04 00:09:36;;;;;;;29.73;5.80;;;;;;;4.85;75.30;102465.09;5263542;28;20033;-71
2023/03/04 00:12:08;;;;;;;24.07;5.50;;;;;;;4.87;75.58;102473.78;5263401;28;20091;-71
2023/03/04 00:14:39;;;;;;;23.23;5.33;;;;;;;4.82;76.00;102470.16;5263014;28;20025;-71
2023/03/04 00:17:11;;;;;;;24.57;5.00;;;;;;;4.82;75.94;102464.97;5262858;28;20041;-72
2023/03/04 00:19:42;;;;;;;23.57;5.87;;;;;;;4.80;76.20;102469.19;5262694;28;20028;-71
2023/03/04 00:22:13;;;;;;;18.83;4.60;;;;;;;4.82;76.16;102465.84;5262626;28;20112;-71
2023/03/04 00:24:45;;;;;;;19.20;4.63;;;;;;;4.89;76.32;102459.19;5261547;28;20021;-71
2023/03/04 00:27:16;;;;;;;17.73;4.70;;;;;;;4.86;76.45;102449.66;5260985;28;20029;-71
2023/03/04 00:29:47;;;;;;;21.03;4.50;;;;;;;4.85;76.45;102442.72;5262446;28;20036;-71
2023/03/04 00:32:19;;;;;;;19.73;5.40;;;;;;;4.88;76.55;102460.91;5262649;28;20033;-70
2023/03/04 00:34:50;;;;;;;18.57;4.73;;;;;;;4.83;76.80;102451.22;5261228;28;20052;-71
2023/03/04 00:37:22;;;;;;;29.00;5.50;;;;;;;4.80;76.95;102456.25;5262052;28;20456;-71
2023/03/04 00:39:53;;;;;;;20.87;5.53;;;;;;;4.72;77.07;102454.28;5262595;28;20032;-71
2023/03/04 00:42:24;;;;;;;24.80;5.47;;;;;;;4.76;77.20;102463.03;5262549;28;20033;-71
2023/03/04 00:44:56;;;;;;;31.50;6.03;;;;;;;4.75;77.21;102456.13;5262534;28;20116;-70
2023/03/04 00:47:27;;;;;;;15.63;6.43;;;;;;;4.77;77.46;102456.19;5261234;28;20033;-70
2023/03/04 00:49:58;;;;;;;18.87;4.73;;;;;;;4.79;77.43;102454.53;5262109;28;20041;-70
2023/03/04 00:52:30;;;;;;;22.63;4.70;;;;;;;4.77;77.48;102454.47;5262469;28;20035;-70
2023/03/04 00:55:01;;;;;;;20.20;5.60;;;;;;;4.75;77.67;102451.81;5262379;28;20041;-70
2023/03/04 00:57:33;;;;;;;19.30;4.80;;;;;;;4.75;77.79;102448.38;5262086;28;20079;-71
2023/03/04 01:00:05;;;;;;;27.57;8.10;;;;;;;4.74;77.84;102452.63;5261947;28;20534;-70
2023/03/04 01:02:36;;;;;;;22.45;4.68;;;;;;;4.80;77.82;102453.69;5262944;28;20483;-70
2023/03/04 01:05:08;;;;;;;21.97;4.60;;;;;;;4.82;78.06;102455.50;5262318;28;20033;-70
2023/03/04 01:07:40;;;;;;;21.33;4.60;;;;;;;4.76;78.09;102457.84;5262794;28;20059;-70
2023/03/04 01:10:14;;;;;;;18.57;4.53;;;;;;;4.74;78.38;102462.97;5266041;28;20029;-70
2023/03/04 01:12:45;;;;;;;26.52;6.05;;;;;;;4.74;78.32;102464.69;5265563;28;20064;-70
2023/03/04 01:15:17;;;;;;;17.47;4.03;;;;;;;4.73;78.07;102463.81;5266128;28;20041;-71
2023/03/04 01:17:48;;;;;;;26.17;4.77;;;;;;;4.80;78.22;102464.00;5265827;28;20521;-70
2023/03/04 01:20:20;;;;;;;25.30;6.47;;;;;;;4.75;78.31;102461.28;5265853;28;20060;-70
2023/03/04 01:22:51;;;;;;;19.03;5.27;;;;;;;4.75;78.41;102459.56;5264849;28;20033;-70
2023/03/04 01:25:22;;;;;;;20.43;5.17;;;;;;;4.71;78.71;102454.22;5265822;28;20456;-71
2023/03/04 01:27:54;;;;;;;21.77;4.60;;;;;;;4.77;78.08;102454.47;5265887;28;20083;-71
2023/03/04 01:30:25;;;;;;;18.43;4.37;;;;;;;4.74;78.18;102455.22;5266056;28;20119;-71
2023/03/04 01:32:57;;;;;;;19.67;3.97;;;;;;;4.77;77.42;102456.19;5265814;28;20036;-71
2023/03/04 01:35:29;;;;;;;14.50;3.92;;;;;;;4.70;78.11;102453.34;5265672;28;20090;-70
2023/03/04 01:38:00;;;;;;;20.60;5.03;;;;;;;4.67;77.69;102448.06;5264873;28;20095;-70
2023/03/04 01:40:32;;;;;;;14.97;3.70;;;;;;;4.65;77.82;102447.09;5265243;28;20380;-70
2023/03/04 01:43:04;;;;;;;17.27;4.37;;;;;;;4.65;77.79;102447.09;5265629;28;20053;-70
2023/03/04 01:45:35;;;;;;;19.85;5.25;;;;;;;4.69;78.19;102451.56;5265392;28;20111;-70
2023/03/04 01:48:18;;;;;;;18.43;3.63;;;;;;;4.67;78.30;102442.00;5265350;28;20529;-70
2023/03/04 01:50:49;;;;;;;19.73;4.68;;;;;;;4.66;78.08;102438.53;5265444;28;20029;-70
2023/03/04 01:53:24;;;;;;;18.00;3.90;;;;;;;4.65;78.32;102429.03;5265477;28;20099;-70
2023/03/04 01:55:59;;;;;;;18.02;3.80;;;;;;;4.65;78.34;102430.75;5265044;28;20033;-70
2023/03/04 01:58:32;;;;;;;18.85;3.35;;;;;;;4.59;78.81;102423.66;5265482;28;20461;-70
2023/03/04 02:01:03;;;;;;;20.90;4.75;;;;;;;4.66;78.82;102417.88;5265114;28;20037;-70
2023/03/04 02:03:35;;;;;;;20.93;5.90;;;;;;;4.69;78.42;102417.13;5265210;28;20108;-71
2023/03/04 02:06:07;;;;;;;17.08;4.65;;;;;;;4.63;79.10;102416.88;5263827;28;20385;-71
2023/03/04 02:08:38;;;;;;;24.87;4.40;;;;;;;4.66;79.02;102420.47;5264573;28;20079;-71
2023/03/04 02:11:10;;;;;;;17.57;4.40;;;;;;;4.63;79.31;102416.88;5263536;28;20033;-71
2023/03/04 02:13:41;;;;;;;14.37;4.33;;;;;;;4.64;79.53;102408.34;5264667;28;20053;-70
2023/03/04 02:16:12;;;;;;;14.30;3.40;;;;;;;4.59;79.67;102409.84;5265109;28;20087;-70
2023/03/04 02:18:44;;;;;;;15.60;3.83;;;;;;;4.59;79.63;102415.00;5264223;28;20060;-72
2023/03/04 02:21:23;;;;;;;16.17;5.27;;;;;;;4.56;79.78;102406.31;5264704;28;20025;-71
2023/03/04 02:24:07;;;;;;;15.55;4.65;;;;;;;4.63;79.77;102412.59;5264675;28;20075;-71
2023/03/04 02:26:42;;;;;;;16.60;3.70;;;;;;;4.57;79.86;102410.69;5264533;28;20028;-71
2023/03/04 02:29:15;;;;;;;16.90;3.50;;;;;;;4.54;80.16;102404.50;5264386;28;20414;-71
2023/03/04 02:31:50;;;;;;;14.75;3.78;;;;;;;4.60;79.85;102407.31;5264244;28;20117;-71
2023/03/04 02:34:26;;;;;;;19.60;4.22;;;;;;;4.56;80.31;102410.63;5264383;28;20032;-70
2023/03/04 02:36:58;;;;;;;21.95;4.57;;;;;;;4.57;80.41;102404.59;5263877;28;20483;-70
2023/03/04 02:39:38;;;;;;;21.90;5.78;;;;;;;4.57;80.33;102402.03;5264450;28;20060;-70
2023/03/04 02:42:10;;;;;;;14.57;3.20;;;;;;;4.55;80.28;102398.50;5264257;28;20029;-70
2023/03/04 02:44:45;;;;;;;21.60;3.97;;;;;;;4.51;80.23;102394.06;5264263;28;20529;-70
2023/03/04 02:47:17;;;;;;;14.23;2.85;;;;;;;4.51;80.88;102388.91;5264071;28;20029;-70
2023/03/04 02:49:49;;;;;;;17.08;3.95;;;;;;;4.51;80.46;102394.06;5263921;28;20223;-70
2023/03/04 02:52:23;;;;;;;22.57;3.27;;;;;;;4.51;80.46;102389.78;5262770;28;20124;-70
2023/03/04 02:54:55;;;;;;;15.98;3.10;;;;;;;4.53;80.69;102395.00;5262682;28;20460;-70
2023/03/04 02:57:26;;;;;;;11.93;2.77;;;;;;;4.52;80.94;102390.66;5263755;28;20036;-71
2023/03/04 02:59:57;;;;;;;13.43;3.00;;;;;;;4.56;80.92;102389.97;5263768;28;20033;-70
2023/03/04 03:02:29;;;;;;;21.10;3.83;;;;;;;4.56;81.09;102384.78;5265484;28;20071;-69
2023/03/04 03:05:00;;;;;;;17.17;3.13;;;;;;;4.54;80.80;102379.56;5267905;28;20029;-69
2023/03/04 03:07:33;;;;;;;14.13;3.53;;;;;;;4.54;81.49;102378.66;5272221;28;20024;-69
2023/03/04 03:10:05;;;;;;;13.70;3.50;;;;;;;4.50;81.34;102377.69;5269763;28;20040;-69
2023/03/04 03:12:36;;;;;;;15.73;3.93;;;;;;;4.59;81.80;102373.69;5264486;28;20033;-69
2023/03/04 03:15:08;;;;;;;19.90;3.97;;;;;;;4.52;81.70;102383.81;5264074;28;20052;-69
2023/03/04 03:17:40;;;;;;;16.50;3.60;;;;;;;4.46;81.76;102378.41;5263599;28;20040;-69
2023/03/04 03:20:12;;;;;;;16.87;3.30;;;;;;;4.44;81.97;102379.16;5263855;28;20025;-70
2023/03/04 03:22:44;;;;;;;16.45;3.70;;;;;;;4.53;82.05;102380.38;5263695;28;20489;-70
2023/03/04 03:25:16;;;;;;;18.87;3.77;;;;;;;4.53;81.74;102379.50;5263232;28;20110;-71
2023/03/04 03:27:47;;;;;;;20.23;4.38;;;;;;;4.53;81.85;102371.75;5263537;28;20535;-69
2023/03/04 03:30:19;;;;;;;17.43;4.07;;;;;;;4.48;82.13;102374.16;5261437;28;20040;-71
2023/03/04 03:32:50;;;;;;;10.23;2.87;;;;;;;4.48;82.10;102375.88;5263535;28;20037;-69
2023/03/04 03:35:22;;;;;;;13.50;3.53;;;;;;;4.48;82.40;102368.13;5263266;28;20029;-70
2023/03/04 03:37:53;;;;;;;15.90;3.10;;;;;;;4.46;82.35;102372.34;5262517;28;20039;-70
2023/03/04 03:40:25;;;;;;;22.53;4.20;;;;;;;4.44;82.67;102367.09;5263084;28;20553;-70
2023/03/04 03:42:56;;;;;;;11.87;4.27;;;;;;;4.48;82.77;102366.41;5263269;28;20052;-70
2023/03/04 03:45:27;;;;;;;11.27;2.90;;;;;;;4.49;82.29;102367.28;5263183;28;20037;-70
2023/03/04 03:47:59;;;;;;;18.90;3.77;;;;;;;4.48;82.22;102368.13;5263228;28;20508;-69
2023/03/04 03:50:30;;;;;;;16.67;3.67;;;;;;;4.45;82.71;102361.13;5263104;28;20043;-70
2023/03/04 03:53:02;;;;;;;13.47;4.27;;;;;;;4.44;82.75;102369.69;5263172;28;20036;-70
2023/03/04 03:55:33;;;;;;;13.10;3.50;;;;;;;4.40;82.86;102362.66;5263090;28;20025;-70
2023/03/04 03:58:05;;;;;;;21.50;3.57;;;;;;;4.39;83.15;102373.81;5261706;28;20366;-69
2023/03/04 04:00:36;;;;;;;26.13;4.47;;;;;;;4.37;83.27;102363.41;5262835;28;20036;-70
2023/03/04 04:03:13;;;;;;;17.17;3.97;;;;;;;4.36;83.43;102365.94;5262464;28;20407;-70
2023/03/04 04:05:44;;;;;;;16.80;3.33;;;;;;;4.33;83.17;102360.66;5262962;28;20554;-70
2023/03/04 04:08:18;;;;;;;20.00;3.70;;;;;;;4.33;83.29;102369.31;5259972;28;20052;-70
2023/03/04 04:10:50;;;;;;;13.23;3.75;;;;;;;4.36;82.96;102369.44;5262666;28;20429;-72
2023/03/04 04:13:21;;;;;;;14.47;3.47;;;;;;;4.37;82.84;102371.16;5258455;28;20045;-71
2023/03/04 04:15:52;;;;;;;16.20;3.20;;;;;;;4.37;82.96;102368.59;5262196;28;20034;-71
2023/03/04 04:18:24;;;;;;;15.27;2.97;;;;;;;4.41;81.86;102366.13;5262246;28;20021;-71
2023/03/04 04:20:56;;;;;;;14.80;3.30;;;;;;;4.38;81.90;102372.06;5262753;28;20090;-71
2023/03/04 04:23:27;;;;;;;18.67;3.50;;;;;;;4.36;82.07;102373.69;5262579;28;20106;-71
2023/03/04 04:25:59;;;;;;;17.40;4.00;;;;;;;4.35;82.04;102365.06;5242540;28;20112;-71
2023/03/04 04:28:30;;;;;;;18.03;4.37;;;;;;;4.38;82.03;102370.34;5242585;28;20084;-70
2023/03/04 04:31:01;;;;;;;16.43;4.40;;;;;;;4.36;81.92;102374.59;5241353;28;20034;-71
2023/03/04 04:33:33;;;;;;;12.33;2.97;;;;;;;4.32;81.79;102364.94;5241181;28;20130;-70
2023/03/04 04:36:05;;;;;;;15.20;3.60;;;;;;;4.36;81.77;102368.53;5241654;28;20082;-71
2023/03/04 04:38:36;;;;;;;13.10;2.97;;;;;;;4.35;81.57;102366.78;5241302;28;20068;-71
2023/03/04 04:41:30;;;;;;;18.07;3.90;;;;;;;4.36;81.64;102371.09;5241126;28;20022;-71
2023/03/04 04:44:02;;;;;;;19.15;3.03;;;;;;;4.33;81.62;102370.97;5245863;28;20380;-71
2023/03/04 04:46:33;;;;;;;14.07;2.77;;;;;;;4.35;81.53;102375.41;5243933;28;20033;-71
2023/03/04 04:49:06;;;;;;;16.27;5.00;;;;;;;4.32;81.32;102380.44;5245910;28;20056;-71
2023/03/04 04:51:38;;;;;;;16.42;4.97;;;;;;;4.30;81.46;102378.59;5245830;28;20056;-70
2023/03/04 04:54:11;;;;;;;20.55;4.00;;;;;;;4.33;81.87;102376.16;5245669;28;20465;-70
2023/03/04 04:56:42;;;;;;;21.95;3.45;;;;;;;4.36;81.69;102384.00;5245368;28;20040;-69
2023/03/04 04:59:14;;;;;;;19.90;4.10;;;;;;;4.40;81.20;102382.47;5245103;28;20038;-69
2023/03/04 05:01:45;;;;;;;16.77;3.07;;;;;;;4.34;81.28;102383.97;5259448;28;20029;-69
2023/03/04 05:04:16;;;;;;;18.20;4.17;;;;;;;4.36;81.39;102382.34;5264896;28;20025;-70
2023/03/04 05:06:48;;;;;;;20.47;3.60;;;;;;;4.31;81.56;102377.81;5265354;28;20033;-70
2023/03/04 05:09:21;;;;;;;15.93;4.30;;;;;;;4.34;81.28;102372.75;5265741;28;20115;-70
2023/03/04 05:11:53;;;;;;;19.02;3.13;;;;;;;4.33;81.18;102371.88;5265511;28;20538;-70
2023/03/04 05:14:24;;;;;;;19.67;2.80;;;;;;;4.33;81.75;102381.31;5265920;28;20057;-70
2023/03/04 05:16:55;;;;;;;11.80;3.23;;;;;;;4.31;81.33;102370.94;5265733;28;20031;-71
2023/03/04 05:19:27;;;;;;;19.33;4.37;;;;;;;4.34;81.48;102373.63;5265644;28;20079;-70
2023/03/04 05:21:58;;;;;;;14.37;3.87;;;;;;;4.32;81.21;102371.81;5265568;28;20037;-71
2023/03/04 05:24:30;;;;;;;14.50;3.07;;;;;;;4.33;80.89;102370.97;5265718;28;20033;-70
2023/03/04 05:27:01;;;;;;;9.90;3.03;;;;;;;4.28;80.97;102365.66;5265267;28;20114;-71
2023/03/04 05:29:33;;;;;;;13.30;3.10;;;;;;;4.30;80.91;102370.88;5265678;28;20162;-71
2023/03/04 05:32:04;;;;;;;14.13;3.53;;;;;;;4.26;80.81;102379.34;5264464;28;20033;-70
2023/03/04 05:34:35;;;;;;;19.07;4.00;;;;;;;4.26;81.05;102374.16;5265623;28;20111;-70
2023/03/04 05:37:07;;;;;;;16.97;3.83;;;;;;;4.25;81.12;102378.47;5280623;28;20032;-70
2023/03/04 05:39:38;;;;;;;14.30;3.63;;;;;;;4.30;81.73;102378.59;5264311;28;20484;-70
2023/03/04 05:42:09;;;;;;;13.57;2.90;;;;;;;4.30;81.47;102379.50;5265411;28;20112;-70
2023/03/04 05:44:41;;;;;;;12.33;3.40;;;;;;;4.30;81.28;102384.69;5265453;28;20445;-70
2023/03/04 05:47:12;;;;;;;18.13;3.77;;;;;;;4.27;81.25;102376.81;5265301;28;20415;-70
2023/03/04 05:49:43;;;;;;;14.97;3.10;;;;;;;4.29;81.37;102382.03;5265394;28;20029;-70
2023/03/04 05:52:15;;;;;;;13.57;2.77;;;;;;;4.28;81.40;102372.50;5265184;28;20059;-70
2023/03/04 05:54:46;;;;;;;14.50;3.30;;;;;;;4.26;81.22;102379.34;5264198;28;20032;-70
2023/03/04 05:57:17;;;;;;;14.50;4.40;;;;;;;4.27;81.33;102384.56;5265251;28;20029;-69
2023/03/04 05:59:49;;;;;;;16.90;3.20;;;;;;;4.29;81.73;102392.34;5265080;28;20079;-69
2023/03/04 06:02:20;;;;;;;16.53;3.33;;;;;;;4.29;81.58;102384.63;5263949;28;20111;-70
2023/03/04 06:04:52;;;;;;;14.17;2.67;;;;;;;4.33;82.09;102389.97;5269423;28;20120;-69
2023/03/04 06:07:23;;;;;;;11.97;2.53;;;;;;;4.31;82.71;102382.97;5274047;28;20051;-70
2023/03/04 06:09:54;;;;;;;14.43;3.83;;;;;;;4.27;82.29;102386.25;5266498;28;20041;-69
2023/03/04 06:12:27;;;;;;;17.97;3.73;;;;;;;4.26;82.52;102384.50;5264433;28;20039;-69
2023/03/04 06:14:58;;;;;;;17.23;4.03;;;;;;;4.24;82.89;102389.59;5264670;28;20049;-69
2023/03/04 06:17:30;;;;;;;18.70;3.80;;;;;;;4.27;83.13;102394.88;5263844;28;20051;-69
2023/03/04 06:20:04;;;;;;;11.30;2.57;;;;;;;4.25;83.47;102387.88;5264665;28;20120;-69
2023/03/04 06:22:35;;;;;;;15.13;3.10;;;;;;;4.22;83.89;102388.66;5263687;28;20032;-69
2023/03/04 06:25:07;;;;;;;14.77;2.90;;;;;;;4.22;83.84;102390.34;5263970;28;20431;-69
2023/03/04 06:27:38;;;;;;;15.67;3.60;;;;;;;4.20;84.43;102390.28;5264018;28;20044;-68
2023/03/04 06:30:10;;;;;;;12.63;3.47;;;;;;;4.24;84.54;102399.06;5264621;28;20056;-69
2023/03/04 06:32:43;;;;;;;7.63;2.83;;;;;;;4.24;84.68;102396.47;5263847;28;20028;-69
2023/03/04 06:35:15;;;;;;;13.32;3.50;;;;;;;4.22;85.03;102404.16;5264127;28;20271;-70
2023/03/04 06:37:47;;;;;;;10.68;3.45;;;;;;;4.19;85.41;102398.88;5263410;28;20025;-70
2023/03/04 06:40:18;;;;;;;10.27;2.93;;;;;;;4.18;86.32;102397.97;5263105;28;20041;-70
2023/03/04 06:42:49;;;;;;;7.77;2.20;;;;;;;4.17;86.72;102398.81;5263677;28;20393;-70
2023/03/04 06:45:21;;;;;;;8.23;2.70;;;;;;;4.21;86.84;102397.22;5262162;28;20163;-69
2023/03/04 06:47:52;;;;;;;12.03;2.80;;;;;;;4.20;86.84;102400.59;5263872;28;20033;-70
2023/03/04 06:50:23;;;;;;;12.93;3.10;;;;;;;4.20;87.19;102401.50;5263974;28;20048;-70
2023/03/04 06:52:56;;;;;;;9.27;3.00;;;;;;;4.24;86.94;102405.09;5263898;28;20031;-70
2023/03/04 06:55:27;;;;;;;10.38;2.55;;;;;;;4.27;87.18;102412.06;5264155;28;20040;-70
2023/03/04 06:57:58;;;;;;;17.00;3.23;;;;;;;4.23;87.98;102416.22;5261801;28;20036;-70
2023/03/04 07:00:30;;;;;;;15.57;3.10;;;;;;;4.23;88.17;102408.47;5263882;28;20506;-71
2023/03/04 07:03:01;;;;;;;8.70;2.27;;;;;;;4.22;88.47;102414.47;5263637;28;20064;-70
2023/03/04 07:05:32;;;;;;;9.80;2.60;;;;;;;4.22;88.57;102418.72;5263947;28;20033;-70
2023/03/04 07:08:05;;;;;;;11.67;2.37;;;;;;;4.21;88.86;102420.44;5261962;28;20163;-69
2023/03/04 07:10:37;;;;;;;6.97;2.63;;;;;;;4.24;89.51;102412.81;5263608;28;20435;-70
2023/03/04 07:13:08;;;;;;;14.27;2.93;;;;;;;4.23;89.64;102415.34;5263349;28;20037;-70
2023/03/04 07:15:40;;;;;;;11.40;2.77;;;;;;;4.23;89.80;102416.22;5263810;28;20021;-70
2023/03/04 07:18:11;;;;;;;8.63;2.43;;;;;;;4.31;90.40;102419.09;5263669;28;20039;-70
2023/03/04 07:20:42;;;;;;;15.10;2.97;;;;;;;4.32;90.04;102415.72;5263395;28;20453;-70
2023/03/04 07:23:14;;;;;;;8.63;2.70;;;;;;;4.37;90.00;102421.94;5263499;28;20104;-70
2023/03/04 07:25:45;;;;;;;11.83;4.20;;;;;;;4.38;90.06;102426.28;5263557;28;20483;-70
2023/03/04 07:28:17;;;;;;;14.17;3.20;;;;;;;4.36;90.21;102422.75;5263409;28;20047;-70
2023/03/04 07:30:48;;;;;;;12.87;3.03;;;;;;;4.43;90.10;102432.50;5263731;28;20052;-70
2023/03/04 07:33:20;;;;;;;10.63;2.37;;;;;;;4.41;90.06;102430.66;5263266;28;20033;-70
2023/03/04 07:35:58;;;;;;;13.80;3.37;;;;;;;4.44;90.30;102434.25;5263456;28;20029;-70
2023/03/04 07:38:30;;;;;;;10.80;2.95;;;;;;;4.44;90.17;102439.41;5262902;28;20025;-70
2023/03/04 07:41:01;;;;;;;12.37;2.67;;;;;;;4.52;90.08;102444.88;5263004;28;20029;-70
2023/03/04 07:43:33;;;;;;;9.87;2.67;;;;;;;4.53;89.42;102444.06;5263567;28;20029;-70
2023/03/04 07:46:04;;;;;;;7.80;2.63;;;;;;;4.62;89.44;102444.44;5263320;28;20029;-69
2023/03/04 07:48:36;;;;;;;11.90;3.07;;;;;;;4.63;89.04;102450.47;5263193;28;20469;-69
2023/03/04 07:51:09;;;;;;;16.10;2.93;;;;;;;4.61;89.14;102449.53;5262602;28;20124;-69
2023/03/04 07:53:44;;;;;;;9.82;2.80;;;;;;;4.69;88.97;102448.13;5262952;28;20439;-70
2023/03/04 07:56:19;;;;;;;9.32;3.28;;;;;;;4.70;89.19;102450.78;5262823;28;20096;-70
2023/03/04 07:58:52;;;;;;;10.90;3.08;;;;;;;4.71;89.36;102454.22;5262851;28;20025;-70
2023/03/04 08:01:27;;;;;;;9.77;2.85;;;;;;;4.66;89.52;102451.47;5261529;28;20128;-70
2023/03/04 08:03:59;;;;;;;12.93;3.53;;;;;;;4.65;90.19;102454.84;5261273;28;20511;-70
2023/03/04 08:06:31;;;;;;;13.97;3.23;;;;;;;4.65;90.17;102456.56;5262743;28;20033;-70
2023/03/04 08:09:05;;;;;;;11.20;3.80;;;;;;;4.61;90.25;102455.56;5261100;28;20428;-70
2023/03/04 08:11:37;;;;;;;14.02;3.67;;;;;;;4.54;90.98;102458.72;5262720;28;20103;-70
2023/03/04 08:14:10;;;;;;;14.20;3.07;;;;;;;4.56;91.47;102462.28;5262637;28;20147;-70
2023/03/04 08:16:42;;;;;;;14.40;3.55;;;;;;;4.57;91.19;102458.84;5262146;28;20057;-70
2023/03/04 08:19:13;;;;;;;12.13;3.07;;;;;;;4.63;91.21;102453.91;5261716;28;20075;-69
2023/03/04 08:21:44;;;;;;;16.30;4.23;;;;;;;4.62;91.27;102456.44;5262450;28;20110;-69
2023/03/04 08:24:16;;;;;;;12.10;3.50;;;;;;;4.70;90.98;102461.09;5262600;28;20032;-69
2023/03/04 08:26:49;;;;;;;16.07;3.50;;;;;;;4.75;91.19;102458.69;5262494;28;20112;-69
2023/03/04 08:29:23;;;;;;;11.52;3.15;;;;;;;4.77;91.62;102461.34;5262450;28;20111;-69
2023/03/04 08:31:55;;;;;;;11.90;3.10;;;;;;;4.76;92.24;102457.84;5262579;28;20029;-69
2023/03/04 08:34:27;;;;;;;11.53;2.53;;;;;;;4.86;92.17;102461.66;5262686;28;20033;-70
2023/03/04 08:36:58;;;;;;;14.20;3.50;;;;;;;4.93;92.25;102464.53;5262567;28;20036;-69
2023/03/04 08:39:32;;;;;;;8.33;2.90;;;;;;;5.04;91.65;102454.63;5262036;28;20468;-69
2023/03/04 08:42:03;;;;;;;8.88;2.88;;;;;;;5.16;90.96;102467.09;5262323;28;20035;-70
2023/03/04 08:44:35;;;;;;;15.57;3.40;;;;;;;5.23;90.07;102466.50;5262420;28;20469;-70
2023/03/04 08:47:09;;;;;;;22.53;6.63;;;;;;;5.54;89.13;102470.19;5262022;28;20033;-70
2023/03/04 08:49:40;;;;;;;13.38;3.03;;;;;;;5.65;88.73;102458.50;5262180;28;20037;-70
2023/03/04 08:52:11;;;;;;;11.97;3.77;;;;;;;5.75;87.33;102461.41;5262346;28;20037;-70
2023/03/04 08:54:43;;;;;;;13.83;4.43;;;;;;;5.65;87.32;102463.69;5262211;28;20120;-70
2023/03/04 08:57:14;;;;;;;16.23;3.30;;;;;;;6.01;86.53;102457.13;5260952;28;20083;-70
2023/03/04 08:59:45;;;;;;;12.57;2.87;;;;;;;6.09;84.71;102463.44;5263527;28;20029;-69
2023/03/04 09:02:17;;;;;;;10.87;2.80;;;;;;;6.53;85.15;102455.31;5265653;28;20108;-69
2023/03/04 09:04:48;;;;;;;10.87;3.27;;;;;;;7.04;82.88;102460.28;5270095;28;20060;-69
2023/03/04 09:07:19;;;;;;;7.80;3.33;;;;;;;6.92;80.14;102449.56;5263114;28;20029;-69
2023/03/04 09:09:51;;;;;;;12.20;3.50;;;;;;;7.15;79.79;102457.09;5262150;28;20072;-69
2023/03/04 09:12:22;;;;;;;8.93;2.90;;;;;;;7.33;78.00;102459.38;5277998;28;20025;-69
2023/03/04 09:14:53;;;;;;;10.07;3.40;;;;;;;7.44;77.92;102453.63;5260657;28;20053;-70
2023/03/04 09:17:25;;;;;;;8.63;2.70;;;;;;;7.22;76.47;102452.16;5262173;28;20036;-69
2023/03/04 09:19:56;;;;;;;8.93;2.50;;;;;;;7.04;77.42;102446.47;5262055;28;20030;-69
2023/03/04 09:22:28;;;;;;;7.10;2.63;;;;;;;6.92;78.10;102440.09;5262407;28;20090;-69
2023/03/04 09:24:59;;;;;;;11.17;3.20;;;;;;;6.88;77.29;102451.19;5260865;28;20025;-69
2023/03/04 09:27:31;;;;;;;8.07;2.67;;;;;;;7.06;77.59;102437.88;5262220;28;20033;-69
2023/03/04 09:30:02;;;;;;;7.87;2.63;;;;;;;7.46;76.26;102443.28;5263692;28;20119;-69
2023/03/04 09:32:34;;;;;;;9.50;2.73;;;;;;;7.57;76.32;102447.03;5265434;28;20124;-69
2023/03/04 09:35:06;;;;;;;9.03;3.73;;;;;;;7.28;75.81;102441.94;5265679;28;20033;-69
2023/03/04 09:37:37;;;;;;;10.60;2.80;;;;;;;7.01;77.33;102430.81;5264978;28;20481;-70
2023/03/04 09:40:17;;;;;;;11.03;2.87;;;;;;;7.45;76.81;102431.13;5265460;28;20029;-70
2023/03/04 09:42:57;;;;;;;8.52;2.30;;;;;;;7.78;75.61;102425.94;5264437;28;20526;-70
2023/03/04 09:45:37;;;;;;;10.27;3.15;;;;;;;8.08;74.42;102429.25;5265123;28;20025;-70
2023/03/04 09:48:14;;;;;;;11.13;3.25;;;;;;;8.19;72.77;102436.47;5265385;28;20036;-70
2023/03/04 09:51:20;;;;;;;9.13;2.70;;;;;;;8.53;73.18;102426.88;5265613;28;20036;-70
2023/03/04 09:54:04;;;;;;;7.18;2.20;;;;;;;8.33;72.23;102431.59;5255863;28;20048;-70
2023/03/04 09:56:38;;;;;;;9.30;2.35;;;;;;;7.90;72.47;102427.09;5265736;28;20447;-69
2023/03/04 09:59:28;;;;;;;7.57;1.75;;;;;;;7.63;74.58;102433.31;5265211;28;20055;-70
2023/03/04 10:02:11;;;;;;;6.45;1.80;;;;;;;7.48;74.73;102431.22;5264954;28;20032;-70
2023/03/04 10:04:50;;;;;;;5.15;1.80;;;;;;;7.39;75.54;102434.47;5265207;28;20033;-70
2023/03/04 10:07:36;;;;;;;8.45;2.55;;;;;;;7.14;76.98;102435.50;5264302;28;20036;-68
2023/03/04 10:10:15;;;;;;;5.15;1.83;;;;;;;7.44;76.56;102432.00;5264923;28;20029;-69
2023/03/04 10:12:49;;;;;;;4.85;1.92;;;;;;;7.64;75.00;102429.91;5265163;28;20423;-70
2023/03/04 10:15:33;;;;;;;7.15;2.10;;;;;;;7.52;74.55;102427.88;5263445;28;20052;-70
2023/03/04 10:18:20;;;;;;;4.10;1.70;;;;;;;7.81;75.35;102422.56;5264929;28;20041;-69
2023/03/04 10:20:58;;;;;;;5.60;2.13;;;;;;;7.99;73.76;102430.78;5264776;28;20040;-70
2023/03/04 10:23:31;;;;;;;4.50;2.17;;;;;;;8.07;72.99;102433.56;5264596;28;20085;-69
2023/03/04 10:26:11;;;;;;;;;;;;;;;8.91;71.40;102432.00;5264829;28;20118;-70
2023/03/04 10:28:42;;;;;;;4.53;2.00;;;;;;;9.01;68.90;102427.00;5264854;28;19916;-70
2023/03/04 10:31:31;;;;;;;5.07;1.97;;;;;;;9.81;67.29;102420.66;5264546;28;20464;-70
2023/03/04 10:34:04;;;;;;;9.70;2.30;;;;;;;9.71;64.99;102413.50;5264255;28;20033;-71
2023/03/04 10:36:43;;;;;;;;;;;;;;;10.46;65.17;102413.84;5265011;28;20028;-70
2023/03/04 10:39:36;;;;;;;6.93;1.98;;;;;;;9.75;65.13;102405.78;5263148;28;19959;-70
2023/03/04 10:42:13;;;;;;;;;;;;;;;9.79;65.18;102406.75;5264663;28;20060;-69
2023/03/04 10:45:19;;;;;;;4.65;1.90;;;;;;;8.88;67.85;102415.47;5264051;28;19909;-70
2023/03/04 10:47:53;;;;;;;6.88;1.90;;;;;;;7.96;69.63;102407.34;5264834;28;20534;-70
2023/03/04 10:50:27;;;;;;;5.10;1.85;;;;;;;7.76;70.91;102408.56;5264058;28;20131;-70
2023/03/04 10:52:58;;;;;;;9.82;2.78;;;;;;;7.71;71.88;102399.78;5263905;28;20029;-70
2023/03/04 10:55:43;;;;;;;7.40;2.70;;;;;;;7.53;74.32;102408.84;5262662;28;20385;-70
2023/03/04 10:58:18;;;;;;;5.82;2.33;;;;;;;7.22;75.46;102413.25;5264166;28;20021;-70
2023/03/04 11:01:01;;;;;;;7.47;2.58;;;;;;;7.24;76.66;102411.56;5263632;28;20033;-70
2023/03/04 11:03:35;;;;;;;8.70;2.13;;;;;;;7.09;76.45;102411.16;5262861;28;20031;-71
2023/03/04 11:06:17;;;;;;;5.93;1.85;;;;;;;7.04;76.89;102410.16;5263964;28;20488;-70
2023/03/04 11:08:57;;;;;;;7.20;2.20;;;;;;;7.08;77.51;102404.19;5263716;28;20464;-70
2023/03/04 11:11:49;;;;;;;8.60;2.45;;;;;;;7.09;77.37;102403.38;5263927;28;20032;-70
2023/03/04 11:14:35;;;;;;;7.67;1.93;;;;;;;7.04;77.31;102395.47;5263552;28;20045;-70
2023/03/04 11:17:27;;;;;;;7.55;2.25;;;;;;;7.03;77.53;102391.09;5263614;28;20453;-70
2023/03/04 11:20:05;;;;;;;7.23;1.90;;;;;;;6.88;79.13;102395.88;5262494;28;20045;-69
2023/03/04 11:22:38;;;;;;;4.32;2.25;;;;;;;6.82;79.63;102393.97;5262863;28;20279;-70
2023/03/04 11:25:35;;;;;;;8.23;2.72;;;;;;;6.81;81.91;102387.06;5261263;28;20044;-70
2023/03/04 11:28:24;;;;;;;5.60;2.60;;;;;;;6.86;81.83;102397.53;5263301;28;20350;-71
2023/03/04 11:31:09;;;;;;;8.60;2.67;;;;;;;7.00;82.03;102382.38;5263216;28;20503;-71
2023/03/04 11:33:59;;;;;;;4.95;2.55;;;;;;;6.97;82.84;102388.38;5263690;28;20020;-71
2023/03/04 11:36:56;;;;;;;5.28;2.10;;;;;;;6.94;83.18;102385.69;5263176;28;20090;-71
2023/03/04 11:39:57;;;;;;;4.25;2.55;;;;;;;6.77;84.77;102382.59;5262658;28;20433;-71
2023/03/04 11:42:43;;;;;;;10.15;3.65;;;;;;;6.67;86.78;102383.19;5262261;28;20471;-70
2023/03/04 11:45:38;;;;;;;8.60;3.47;;;;;;;6.69;87.24;102376.31;5262112;28;20029;-70
2023/03/04 11:48:28;;;;;;;6.63;2.60;;;;;;;6.89;87.03;102375.19;5252341;28;20041;-70
2023/03/04 11:51:18;;;;;;;5.05;2.30;;;;;;;6.97;86.38;102369.31;5263480;28;20368;-70
2023/03/04 11:54:02;;;;;;;8.40;4.30;;;;;;;7.08;86.14;102360.13;5263386;28;20115;-70
2023/03/04 11:56:48;;;;;;;8.65;2.40;;;;;;;7.25;86.24;102360.59;5263115;28;20372;-69
2023/03/04 11:59:31;;;;;;;10.10;6.43;;;;;;;7.20;85.87;102359.59;5262893;28;20461;-70
2023/03/04 12:02:09;;;;;;;3.05;1.92;;;;;;;7.04;86.80;102353.09;5261665;28;20037;-70